Terminal Aerodrome Forecast
Issued by NWS

Home | Current Version | Previous Version | Text Only | Print | Product List | Glossary On
Versions: 1 2 3 4 5 6 7 8 9 10 11 12 13 14 15 16 17 18 19 20 21 22 23 24 25 26
589
FTUS43 KGRR 301831 AAA
TAFLAN
TAF AMD
KLAN 301831Z 3019/0118 05010KT P6SM OVC007
     FM302300 07010KT 4SM BR OVC009
     FM010100 07011KT 4SM -RA BR OVC003
     FM010400 08005KT 6SM BR OVC006
     FM011200 09006KT 1 1/2SM -RA BR OVC002
     FM011500 09006KT 4SM BR OVC003=

USA.gov is the U.S. government's official web portal to all federal, state and local government web resources and services.